Terminal Aerodrome Forecast
Issued by NWS Upton, NY

Home | Current Version | Previous Version | Text Only | Print | Product List | Glossary On
Versions: 1 2 3 4 5 6 7 8 9 10 11 12 13 14 15 16 17 18 19 20 21 22 23 24 25 26 27 28
818
FTUS41 KOKX 241343 AAA
TAFJFK
TAF AMD
KJFK 241343Z 2414/2518 10006KT P6SM SCT120 BKN150
     FM241800 12011KT P6SM SCT080 BKN120
     FM242200 11011KT P6SM VCSH SCT050 BKN080
     FM250300 07010KT P6SM -RA SCT015 OVC060
     FM250600 06011KT 5SM -RA BR BKN015 OVC050
     FM251000 06014G21KT 2SM -RA BR BKN007 OVC010=

USA.gov is the U.S. government's official web portal to all federal, state and local government web resources and services.